Time;durP1;ratioP1;P1;durP2;ratioP2;P2;SDS_P1;SDS_P2;PMS_P1;PMS_P2;Temp;Humidity;BMP_temperature;BMP_pressure;BME280_temperature;BME280_humidity;BME280_pressure;Samples;Min_cycle;Max_cycle;Signal;HPM_P1;HPM_P2
2022/05/30 00:00:06;;;;;;;17.60;7.03;;;12.40;99.90;;;;;;5015712;28;20211;-63
2022/05/30 00:02:34;;;;;;;13.50;7.07;;;12.40;99.90;;;;;;5014382;28;20226;-63
2022/05/30 00:05:02;;;;;;;11.03;7.30;;;12.40;99.90;;;;;;5014310;28;20197;-65
2022/05/30 00:07:29;;;;;;;12.53;6.93;;;12.40;99.90;;;;;;5015635;28;20206;-62
2022/05/30 00:09:56;;;;;;;13.40;7.10;;;12.40;99.90;;;;;;5015651;28;20218;-62
2022/05/30 00:12:23;;;;;;;11.87;7.20;;;12.40;99.90;;;;;;5011472;28;20188;-64
2022/05/30 00:14:49;;;;;;;11.03;6.87;;;12.40;99.90;;;;;;5013759;28;20208;-62
2022/05/30 00:17:16;;;;;;;16.97;7.13;;;12.40;99.90;;;;;;5038753;28;20749;-63
2022/05/30 00:19:43;;;;;;;14.50;7.47;;;12.40;99.90;;;;;;5010995;28;20311;-65
2022/05/30 00:22:13;;;;;;;11.30;6.77;;;12.40;99.90;;;;;;5014960;28;20298;-63
2022/05/30 00:24:40;;;;;;;12.70;7.50;;;12.40;99.90;;;;;;5015938;28;20289;-70
2022/05/30 00:27:08;;;;;;;11.70;7.20;;;12.40;99.90;;;;;;5013790;28;20223;-63
2022/05/30 00:29:36;;;;;;;12.90;7.50;;;12.40;99.90;;;;;;5014716;28;20685;-64
2022/05/30 00:32:05;;;;;;;15.10;7.30;;;12.30;99.90;;;;;;5013942;28;20204;-63
2022/05/30 00:34:33;;;;;;;13.40;7.20;;;12.30;99.90;;;;;;5046940;28;20646;-64
2022/05/30 00:37:00;;;;;;;12.53;7.30;;;12.30;99.90;;;;;;5047063;28;20626;-62
2022/05/30 00:39:27;;;;;;;13.27;7.43;;;12.30;99.90;;;;;;5014056;28;20201;-63
2022/05/30 00:42:07;;;;;;;14.40;7.37;;;12.30;99.90;;;;;;5046989;28;20699;-63
2022/05/30 00:44:34;;;;;;;11.80;7.20;;;12.30;99.90;;;;;;5013672;28;20202;-63
2022/05/30 00:47:01;;;;;;;11.53;6.80;;;12.30;99.90;;;;;;5013924;28;20562;-63
2022/05/30 00:49:28;;;;;;;8.93;6.93;;;12.30;99.90;;;;;;5013604;28;20200;-63
2022/05/30 00:51:57;;;;;;;12.40;6.83;;;12.30;99.90;;;;;;5013776;28;20238;-62
2022/05/30 00:54:42;;;;;;;11.13;7.30;;;12.20;99.90;;;;;;5013561;28;20239;-63
2022/05/30 00:57:22;;;;;;;9.27;6.60;;;12.20;99.90;;;;;;5013669;28;20204;-63
2022/05/30 00:59:58;;;;;;;13.17;7.10;;;12.20;99.90;;;;;;5013560;28;20204;-63
2022/05/30 01:02:30;;;;;;;12.67;6.60;;;12.20;99.90;;;;;;5046757;28;20224;-62
2022/05/30 01:07:45;;;;;;;9.80;6.40;;;12.20;99.90;;;;;;5013475;28;20214;-63
2022/05/30 01:10:16;;;;;;;11.33;6.90;;;12.10;99.90;;;;;;5046866;28;20204;-63
2022/05/30 01:12:49;;;;;;;10.77;6.13;;;12.10;99.90;;;;;;5013071;28;20564;-64
2022/05/30 01:15:17;;;;;;;11.47;6.50;;;12.10;99.90;;;;;;5013160;28;20232;-63
2022/05/30 01:18:03;;;;;;;10.53;6.10;;;12.10;99.90;;;;;;5013117;28;20208;-63
2022/05/30 01:20:48;;;;;;;10.43;6.40;;;12.10;99.90;;;;;;5012854;28;20324;-63
2022/05/30 01:23:40;;;;;;;13.07;6.37;;;12.10;99.90;;;;;;5014038;28;20695;-63
2022/05/30 01:26:24;;;;;;;12.70;6.60;;;12.10;99.90;;;;;;5014210;28;20534;-63
2022/05/30 01:29:14;;;;;;;10.93;6.30;;;12.10;99.90;;;;;;5046306;28;20211;-64
2022/05/30 01:31:41;;;;;;;10.50;6.60;;;12.10;99.90;;;;;;5013119;28;20291;-63
2022/05/30 01:34:08;;;;;;;17.30;6.80;;;12.10;99.90;;;;;;5014056;28;20196;-63
2022/05/30 01:36:36;;;;;;;12.17;6.57;;;12.10;99.90;;;;;;5046013;28;20560;-63
2022/05/30 01:39:04;;;;;;;9.37;6.33;;;12.00;99.90;;;;;;5012757;28;20283;-63
2022/05/30 01:41:31;;;;;;;8.90;6.00;;;12.10;99.90;;;;;;5045420;28;20295;-64
2022/05/30 01:43:58;;;;;;;12.00;6.27;;;12.10;99.90;;;;;;5012746;28;20224;-63
2022/05/30 01:46:26;;;;;;;10.20;6.17;;;12.10;99.90;;;;;;5013980;28;20287;-64
2022/05/30 01:48:54;;;;;;;12.67;6.13;;;12.10;99.90;;;;;;5014018;28;20345;-63
2022/05/30 01:51:22;;;;;;;8.40;5.97;;;12.10;99.90;;;;;;5012503;28;20290;-62
2022/05/30 01:53:50;;;;;;;9.70;5.90;;;12.10;99.90;;;;;;5045713;28;20224;-63
2022/05/30 01:56:18;;;;;;;11.57;6.63;;;12.10;99.90;;;;;;5012385;28;20753;-63
2022/05/30 01:58:46;;;;;;;11.93;6.03;;;12.10;99.90;;;;;;5012534;28;20200;-63
2022/05/30 02:01:22;;;;;;;11.60;6.13;;;12.10;99.90;;;;;;5045404;28;20296;-62
2022/05/30 02:03:51;;;;;;;9.83;6.17;;;12.10;99.90;;;;;;5045486;28;20212;-63
2022/05/30 02:06:20;;;;;;;10.47;5.60;;;12.10;99.90;;;;;;5045044;28;20693;-63
2022/05/30 02:08:48;;;;;;;10.37;6.10;;;12.10;99.90;;;;;;5012353;28;20203;-63
2022/05/30 02:11:17;;;;;;;9.27;5.80;;;12.10;99.90;;;;;;5012409;28;20242;-63
2022/05/30 02:13:45;;;;;;;10.60;6.27;;;12.10;99.90;;;;;;5012263;28;20240;-63
2022/05/30 02:19:00;;;;;;;10.43;6.03;;;12.10;99.90;;;;;;5012036;28;20246;-63
2022/05/30 02:21:29;;;;;;;8.37;6.13;;;12.10;99.90;;;;;;5045301;28;20223;-64
2022/05/30 02:23:55;;;;;;;7.37;5.60;;;12.10;99.90;;;;;;5013161;28;20282;-63
2022/05/30 02:26:22;;;;;;;13.30;6.03;;;12.10;99.90;;;;;;5045020;28;20706;-64
2022/05/30 02:28:49;;;;;;;9.90;6.30;;;12.00;99.90;;;;;;5045254;28;20303;-64
2022/05/30 02:31:16;;;;;;;10.03;5.97;;;12.00;99.90;;;;;;5011995;28;20654;-64
2022/05/30 02:36:41;;;;;;;11.10;6.27;;;12.00;99.90;;;;;;5011777;28;20200;-63
2022/05/30 02:39:20;;;;;;;9.60;5.97;;;11.80;99.90;;;;;;5013335;28;20750;-63
2022/05/30 02:41:47;;;;;;;10.70;6.03;;;11.80;99.90;;;;;;5012103;28;20295;-63
2022/05/30 02:44:19;;;;;;;8.97;5.70;;;11.80;99.90;;;;;;5011929;28;20323;-63
2022/05/30 02:46:51;;;;;;;7.87;5.73;;;11.60;99.90;;;;;;5013464;28;20574;-63
2022/05/30 02:49:19;;;;;;;9.80;6.03;;;11.50;99.90;;;;;;5011839;28;20204;-63
2022/05/30 02:51:47;;;;;;;10.13;6.60;;;11.40;99.90;;;;;;5013538;28;20200;-63
2022/05/30 02:54:14;;;;;;;10.97;6.73;;;11.30;99.90;;;;;;5015856;28;20290;-63
2022/05/30 02:56:41;;;;;;;10.53;7.70;;;11.10;99.90;;;;;;5048873;28;20299;-63
2022/05/30 02:59:08;;;;;;;9.30;7.50;;;11.10;99.90;;;;;;5015799;28;20553;-64
2022/05/30 03:01:35;;;;;;;13.73;7.20;;;11.10;99.90;;;;;;5015845;28;20204;-63
2022/05/30 03:04:04;;;;;;;13.10;7.73;;;11.10;99.90;;;;;;5048630;28;20239;-64
2022/05/30 03:06:31;;;;;;;15.87;8.33;;;11.10;99.90;;;;;;5016852;28;20608;-64
2022/05/30 03:08:58;;;;;;;11.47;7.70;;;11.10;99.90;;;;;;5015795;28;20196;-63
2022/05/30 03:11:25;;;;;;;12.97;7.50;;;11.10;99.90;;;;;;5016720;28;20192;-65
2022/05/30 03:13:53;;;;;;;12.47;7.83;;;11.10;99.90;;;;;;5015584;28;20251;-65
2022/05/30 03:16:22;;;;;;;13.17;8.07;;;11.10;99.90;;;;;;5015431;28;20218;-64
2022/05/30 03:18:50;;;;;;;12.67;8.23;;;11.10;99.90;;;;;;4998402;28;20266;-63
2022/05/30 03:21:22;;;;;;;12.67;8.70;;;11.20;99.90;;;;;;4999123;28;20236;-64
2022/05/30 03:23:52;;;;;;;11.93;8.83;;;11.10;99.90;;;;;;5047871;28;20302;-64
2022/05/30 03:26:22;;;;;;;11.37;8.03;;;11.10;99.90;;;;;;5016443;28;20185;-64
2022/05/30 03:28:51;;;;;;;11.40;8.07;;;11.20;99.90;;;;;;5016244;28;20199;-63
2022/05/30 03:31:21;;;;;;;14.47;8.77;;;11.30;99.90;;;;;;5016472;28;20611;-64
2022/05/30 03:33:48;;;;;;;11.27;7.80;;;11.30;99.90;;;;;;5015124;28;20231;-64
2022/05/30 03:36:17;;;;;;;12.33;8.50;;;11.30;99.90;;;;;;5047940;28;20303;-64
2022/05/30 03:38:45;;;;;;;11.83;8.30;;;11.30;99.90;;;;;;5047873;28;20235;-64
2022/05/30 03:41:12;;;;;;;8.80;7.60;;;11.30;99.90;;;;;;5015004;28;20294;-63
2022/05/30 03:43:39;;;;;;;13.30;8.57;;;11.30;99.90;;;;;;5014715;28;20347;-64
2022/05/30 03:46:06;;;;;;;14.33;8.80;;;11.30;99.90;;;;;;5047724;28;20204;-63
2022/05/30 03:48:33;;;;;;;12.70;8.37;;;11.30;99.90;;;;;;5014775;28;20669;-64
2022/05/30 03:51:07;;;;;;;10.77;8.73;;;11.30;99.90;;;;;;5048026;28;20559;-63
2022/05/30 03:53:33;;;;;;;11.17;8.27;;;11.40;99.90;;;;;;5014662;28;20714;-62
2022/05/30 03:56:00;;;;;;;13.73;8.23;;;11.30;99.90;;;;;;5047665;28;20200;-63
2022/05/30 03:58:27;;;;;;;11.40;8.53;;;11.30;99.90;;;;;;5014445;28;20192;-63
2022/05/30 04:00:54;;;;;;;14.20;9.07;;;11.20;99.90;;;;;;5047727;28;20200;-63
2022/05/30 04:03:21;;;;;;;14.63;9.33;;;11.20;99.90;;;;;;5013338;28;20310;-63
2022/05/30 04:05:48;;;;;;;15.93;10.17;;;11.30;99.90;;;;;;5015486;28;20199;-62
2022/05/30 04:08:15;;;;;;;12.87;9.30;;;11.20;99.90;;;;;;5014356;28;20231;-63
2022/05/30 04:10:41;;;;;;;11.23;8.33;;;11.20;99.90;;;;;;5014283;28;20665;-62
2022/05/30 04:13:09;;;;;;;11.80;7.57;;;11.30;99.90;;;;;;5047419;28;20192;-63
2022/05/30 04:15:36;;;;;;;11.13;7.47;;;11.30;99.90;;;;;;5047371;28;20299;-62
2022/05/30 04:18:04;;;;;;;9.93;7.00;;;11.30;99.90;;;;;;5014522;28;20207;-64
2022/05/30 04:20:31;;;;;;;10.90;7.47;;;11.30;99.90;;;;;;5047238;28;20327;-64
2022/05/30 04:22:59;;;;;;;10.43;7.60;;;11.30;99.90;;;;;;5047157;28;20239;-63
2022/05/30 04:25:26;;;;;;;12.30;7.83;;;11.40;99.90;;;;;;5015120;28;20200;-63
2022/05/30 04:27:53;;;;;;;14.37;8.03;;;11.40;99.90;;;;;;5015317;28;20208;-64
2022/05/30 04:30:20;;;;;;;12.03;7.70;;;11.30;99.90;;;;;;5014496;28;20215;-64
2022/05/30 04:32:48;;;;;;;12.33;8.03;;;11.30;99.90;;;;;;5047166;28;20295;-64
2022/05/30 04:35:16;;;;;;;11.33;7.60;;;11.30;99.90;;;;;;5046647;28;20196;-64
2022/05/30 04:37:43;;;;;;;12.00;7.87;;;11.40;99.90;;;;;;5047032;28;20215;-64
2022/05/30 04:40:16;;;;;;;14.40;8.77;;;11.40;99.90;;;;;;5013731;28;20287;-64
2022/05/30 04:42:44;;;;;;;13.53;8.13;;;11.40;99.90;;;;;;5046689;28;20208;-64
2022/05/30 04:45:12;;;;;;;13.23;8.13;;;11.50;99.90;;;;;;5013417;28;20650;-64
2022/05/30 04:47:39;;;;;;;12.30;8.00;;;11.50;99.90;;;;;;5046951;28;20283;-64
2022/05/30 04:50:10;;;;;;;13.83;8.27;;;11.50;99.90;;;;;;5013784;28;20247;-64
2022/05/30 04:52:36;;;;;;;11.90;8.27;;;11.50;99.90;;;;;;5046818;28;20218;-63
2022/05/30 04:55:04;;;;;;;11.77;7.83;;;11.40;99.90;;;;;;5046643;28;20295;-63
2022/05/30 04:57:30;;;;;;;10.73;8.07;;;11.50;99.90;;;;;;5046446;28;20295;-64
2022/05/30 04:59:58;;;;;;;11.60;8.47;;;11.50;99.90;;;;;;5046471;28;20204;-63
2022/05/30 05:02:25;;;;;;;13.83;8.90;;;11.50;99.90;;;;;;5013342;28;20291;-63
2022/05/30 05:04:52;;;;;;;13.40;8.90;;;11.60;99.90;;;;;;5046050;28;20230;-64
2022/05/30 05:07:18;;;;;;;14.53;9.33;;;11.60;99.90;;;;;;5046532;28;20334;-64
2022/05/30 05:09:52;;;;;;;12.60;8.53;;;11.50;99.90;;;;;;5014638;28;20266;-63
2022/05/30 05:12:19;;;;;;;14.17;8.40;;;11.50;99.90;;;;;;5013263;28;20295;-64
2022/05/30 05:14:46;;;;;;;12.77;8.53;;;11.50;99.90;;;;;;5014076;28;20196;-63
2022/05/30 05:17:14;;;;;;;13.40;9.10;;;11.40;99.90;;;;;;5012984;28;20303;-63
2022/05/30 05:19:42;;;;;;;12.97;8.20;;;11.40;99.90;;;;;;5012727;28;20327;-63
2022/05/30 05:22:14;;;;;;;15.63;10.20;;;11.40;99.90;;;;;;5012832;28;20227;-64
2022/05/30 05:24:42;;;;;;;16.17;10.07;;;11.50;99.90;;;;;;5014168;28;20223;-69
2022/05/30 05:27:09;;;;;;;15.80;10.73;;;11.50;99.90;;;;;;5012800;28;20238;-64
2022/05/30 05:29:36;;;;;;;16.23;10.57;;;11.60;99.90;;;;;;5012811;28;20749;-65
2022/05/30 05:32:06;;;;;;;13.07;9.80;;;11.50;99.90;;;;;;5045838;28;20200;-65
2022/05/30 05:34:33;;;;;;;16.63;9.90;;;11.30;99.90;;;;;;5012817;28;20294;-71
2022/05/30 05:37:00;;;;;;;16.90;10.10;;;11.30;99.90;;;;;;5012809;28;20295;-66
2022/05/30 05:39:27;;;;;;;16.70;9.77;;;11.30;99.90;;;;;;5012557;28;20286;-63
2022/05/30 05:41:54;;;;;;;13.43;9.80;;;11.30;99.90;;;;;;5045798;28;20283;-63
2022/05/30 05:44:21;;;;;;;15.20;10.40;;;11.30;99.90;;;;;;5012388;28;20746;-61
2022/05/30 05:46:48;;;;;;;14.93;10.63;;;11.30;99.90;;;;;;5012611;28;20200;-63
2022/05/30 05:49:15;;;;;;;17.33;10.33;;;11.40;99.90;;;;;;5045585;28;20295;-62
2022/05/30 05:51:42;;;;;;;16.70;10.57;;;11.50;99.90;;;;;;5013993;28;20303;-64
2022/05/30 05:54:09;;;;;;;14.57;10.13;;;11.40;99.90;;;;;;5012501;28;20222;-66
2022/05/30 05:56:36;;;;;;;18.47;11.07;;;11.40;99.90;;;;;;5045544;28;20200;-63
2022/05/30 05:59:04;;;;;;;15.83;11.60;;;11.40;99.90;;;;;;5045607;28;20204;-67
2022/05/30 06:01:33;;;;;;;16.47;11.53;;;11.50;99.90;;;;;;5012192;28;20287;-63
2022/05/30 06:04:04;;;;;;;14.93;10.80;;;11.50;99.90;;;;;;5045443;28;20270;-63
2022/05/30 06:06:32;;;;;;;15.03;11.40;;;11.50;99.90;;;;;;5045526;28;20205;-64
2022/05/30 06:09:04;;;;;;;14.93;10.40;;;11.50;99.90;;;;;;5012527;28;20199;-67
2022/05/30 06:11:33;;;;;;;17.00;11.67;;;11.60;99.90;;;;;;5012359;28;20673;-63
2022/05/30 06:14:00;;;;;;;17.63;11.70;;;11.60;99.90;;;;;;5012098;28;20215;-75
2022/05/30 06:16:33;;;;;;;16.23;11.47;;;11.60;99.90;;;;;;5012240;28;20701;-64
2022/05/30 06:19:01;;;;;;;16.83;11.57;;;11.70;99.90;;;;;;5045021;28;20212;-63
2022/05/30 06:21:31;;;;;;;17.00;11.60;;;11.70;99.90;;;;;;5011652;28;20286;-63
2022/05/30 06:23:59;;;;;;;16.33;11.67;;;11.80;99.90;;;;;;5011848;28;20228;-64
2022/05/30 06:26:26;;;;;;;15.20;11.90;;;11.80;99.90;;;;;;5012732;28;20192;-62
2022/05/30 06:28:57;;;;;;;17.70;11.73;;;11.70;99.90;;;;;;5044995;28;20235;-63
2022/05/30 06:31:27;;;;;;;17.97;11.83;;;11.60;99.90;;;;;;5012055;28;20203;-63
2022/05/30 06:33:55;;;;;;;18.83;12.27;;;11.60;99.90;;;;;;5012244;28;20204;-63
2022/05/30 06:36:24;;;;;;;15.27;11.30;;;11.60;99.90;;;;;;5045394;28;20204;-71
2022/05/30 06:38:52;;;;;;;16.63;12.10;;;11.60;99.90;;;;;;5044969;28;20199;-81
2022/05/30 06:41:27;;;;;;;20.43;12.33;;;11.70;99.90;;;;;;5011911;28;20283;-63
2022/05/30 06:43:57;;;;;;;16.10;11.90;;;11.80;99.90;;;;;;5011905;28;20414;-69
2022/05/30 06:46:24;;;;;;;17.57;11.97;;;11.80;99.90;;;;;;5044924;28;20614;-63
2022/05/30 06:48:55;;;;;;;17.50;12.63;;;11.90;99.90;;;;;;5045169;28;20207;-62
2022/05/30 06:51:24;;;;;;;16.77;13.10;;;12.00;99.90;;;;;;5044941;28;20255;-63
2022/05/30 06:53:52;;;;;;;16.00;12.17;;;12.00;99.90;;;;;;5011596;28;20250;-64
2022/05/30 06:56:25;;;;;;;18.67;12.50;;;12.00;99.90;;;;;;5011883;28;20639;-65
2022/05/30 06:58:53;;;;;;;16.27;11.40;;;12.00;99.90;;;;;;5011939;28;20697;-70
2022/05/30 07:01:23;;;;;;;15.30;10.23;;;12.10;99.90;;;;;;5013613;28;20605;-82
2022/05/30 07:03:51;;;;;;;14.53;9.57;;;12.20;99.90;;;;;;5011851;28;20699;-63
2022/05/30 07:06:22;;;;;;;11.60;9.30;;;12.20;99.90;;;;;;5012704;28;20242;-83
2022/05/30 07:08:49;;;;;;;11.73;9.33;;;12.20;99.90;;;;;;5011767;28;20200;-62
2022/05/30 07:11:19;;;;;;;11.87;9.13;;;12.20;99.90;;;;;;5045104;28;20243;-63
2022/05/30 07:13:46;;;;;;;12.03;8.80;;;12.30;99.90;;;;;;5012912;28;20650;-68
2022/05/30 07:16:13;;;;;;;10.40;7.43;;;12.30;99.90;;;;;;5044771;28;20208;-62
2022/05/30 07:18:43;;;;;;;9.13;6.63;;;12.20;99.90;;;;;;5041569;28;20205;-63
2022/05/30 07:21:13;;;;;;;11.60;7.30;;;12.20;99.90;;;;;;5011403;28;20333;-65
2022/05/30 07:23:41;;;;;;;9.37;6.47;;;12.20;99.90;;;;;;5011259;28;20278;-62
2022/05/30 07:26:12;;;;;;;10.20;6.30;;;12.20;99.90;;;;;;5011511;28;20329;-64
2022/05/30 07:28:40;;;;;;;9.57;6.73;;;12.10;99.90;;;;;;5011395;28;20247;-63
2022/05/30 07:31:10;;;;;;;8.60;7.00;;;12.20;99.90;;;;;;5016076;28;20240;-66
2022/05/30 07:33:39;;;;;;;8.13;6.40;;;12.30;99.90;;;;;;5009653;28;20210;-68
2022/05/30 07:36:11;;;;;;;10.57;7.03;;;12.30;99.90;;;;;;5011229;28;20212;-64
2022/05/30 07:38:38;;;;;;;9.93;7.03;;;12.20;99.90;;;;;;5012367;28;20291;-63
2022/05/30 07:41:05;;;;;;;9.03;7.00;;;12.30;99.90;;;;;;5013649;28;20210;-63
2022/05/30 07:43:32;;;;;;;11.47;7.70;;;12.30;99.90;;;;;;5020507;28;20290;-63
2022/05/30 07:46:08;;;;;;;10.77;7.43;;;12.30;99.90;;;;;;5015109;28;20206;-73
2022/05/30 07:48:36;;;;;;;9.93;7.87;;;12.30;99.90;;;;;;5014299;28;20282;-68
2022/05/30 07:51:04;;;;;;;10.47;7.97;;;12.30;99.90;;;;;;5013576;28;20265;-62
2022/05/30 07:53:31;;;;;;;10.93;7.70;;;12.30;99.90;;;;;;5014569;28;20227;-62
2022/05/30 07:55:59;;;;;;;10.43;7.50;;;12.40;99.90;;;;;;5014612;28;20232;-67
2022/05/30 07:58:27;;;;;;;10.97;7.37;;;12.40;99.90;;;;;;5016066;28;20311;-62
2022/05/30 08:00:54;;;;;;;9.97;7.20;;;12.40;99.90;;;;;;5014573;28;20284;-60
2022/05/30 08:03:24;;;;;;;8.37;6.90;;;12.40;99.90;;;;;;5014012;28;20251;-70
2022/05/30 08:05:50;;;;;;;10.13;7.53;;;12.50;99.90;;;;;;4998314;28;20314;-70
2022/05/30 08:08:18;;;;;;;11.13;7.53;;;12.50;99.90;;;;;;5014567;28;20246;-61
2022/05/30 08:10:46;;;;;;;9.07;7.30;;;12.60;99.90;;;;;;5015672;28;20197;-66
2022/05/30 08:13:13;;;;;;;11.23;7.40;;;12.60;99.90;;;;;;5014480;28;20393;-70
2022/05/30 08:15:40;;;;;;;10.03;7.20;;;12.60;99.90;;;;;;5014046;28;20196;-60
2022/05/30 08:18:07;;;;;;;9.77;7.20;;;12.50;99.90;;;;;;5014332;28;20654;-64
2022/05/30 08:20:34;;;;;;;10.70;7.87;;;12.50;99.90;;;;;;5013957;28;20247;-61
2022/05/30 08:23:00;;;;;;;10.87;7.40;;;12.60;99.90;;;;;;5014768;28;20315;-66
2022/05/30 08:25:28;;;;;;;10.47;7.27;;;12.50;99.90;;;;;;5013202;28;20322;-59
2022/05/30 08:27:55;;;;;;;10.90;7.57;;;12.60;99.90;;;;;;5014240;28;20242;-62
2022/05/30 08:30:22;;;;;;;14.80;7.83;;;12.70;99.90;;;;;;5013981;28;20239;-64
2022/05/30 08:32:50;;;;;;;11.70;7.37;;;12.70;99.90;;;;;;5013937;28;20191;-63
2022/05/30 08:35:18;;;;;;;9.80;7.30;;;12.60;99.90;;;;;;5026046;28;20298;-60
2022/05/30 08:37:46;;;;;;;9.40;7.00;;;12.60;99.90;;;;;;5034751;28;20264;-61
2022/05/30 08:43:13;;;;;;;10.47;7.80;;;12.60;99.90;;;;;;5034542;28;20282;-62
2022/05/30 08:45:44;;;;;;;11.50;7.57;;;12.50;99.90;;;;;;5033414;28;20227;-64
2022/05/30 08:48:14;;;;;;;11.63;7.67;;;12.50;99.90;;;;;;5033792;28;20209;-74
2022/05/30 08:51:02;;;;;;;10.10;7.30;;;12.50;99.90;;;;;;5033087;28;20203;-63
2022/05/30 08:53:57;;;;;;;8.23;7.20;;;12.50;99.90;;;;;;5033088;28;20238;-67
2022/05/30 08:56:33;;;;;;;12.17;7.63;;;12.50;99.90;;;;;;5033494;28;20259;-74
2022/05/30 08:59:39;;;;;;;10.47;7.67;;;12.60;99.90;;;;;;5033116;28;20188;-62
2022/05/30 09:02:20;;;;;;;9.43;7.47;;;12.60;99.90;;;;;;5034221;28;20185;-64
2022/05/30 09:04:52;;;;;;;9.20;7.17;;;12.60;99.90;;;;;;5032620;28;20314;-63
2022/05/30 09:07:25;;;;;;;12.03;7.63;;;12.70;99.90;;;;;;5032951;28;20233;-65
2022/05/30 09:09:59;;;;;;;8.53;6.87;;;12.80;99.90;;;;;;5032645;28;20231;-65
2022/05/30 09:13:00;;;;;;;8.97;6.73;;;12.70;99.90;;;;;;5032827;28;20191;-68
2022/05/30 09:15:34;;;;;;;10.17;6.60;;;12.70;99.90;;;;;;5032695;28;20208;-64
2022/05/30 09:18:10;;;;;;;10.23;6.83;;;12.70;99.90;;;;;;5032852;28;20633;-64
2022/05/30 09:20:41;;;;;;;10.77;7.30;;;12.70;99.90;;;;;;5032716;28;20235;-63
2022/05/30 09:23:10;;;;;;;7.77;6.40;;;12.80;99.90;;;;;;5032219;28;20215;-66
2022/05/30 09:26:01;;;;;;;7.67;6.07;;;12.70;99.90;;;;;;5033909;28;20223;-65
2022/05/30 09:28:32;;;;;;;7.30;6.00;;;12.80;99.90;;;;;;5033764;28;20723;-70
2022/05/30 09:31:18;;;;;;;8.27;6.33;;;12.70;99.90;;;;;;5032685;28;20294;-61
2022/05/30 09:33:48;;;;;;;7.33;6.07;;;12.80;99.90;;;;;;5033808;28;20540;-62
2022/05/30 09:36:36;;;;;;;8.33;5.63;;;12.90;99.90;;;;;;5032960;28;20626;-67
2022/05/30 09:39:05;;;;;;;8.27;5.90;;;12.80;99.90;;;;;;5032651;28;20231;-64
2022/05/30 09:41:37;;;;;;;8.47;6.07;;;12.80;99.90;;;;;;5032228;28;20200;-65
2022/05/30 09:44:26;;;;;;;8.47;6.03;;;12.70;99.90;;;;;;5031950;28;20199;-66
2022/05/30 09:47:06;;;;;;;9.67;6.37;;;12.80;99.90;;;;;;5016268;28;20200;-74
2022/05/30 09:49:43;;;;;;;9.97;6.20;;;12.80;99.90;;;;;;5032008;28;20630;-70
2022/05/30 09:52:27;;;;;;;6.87;6.00;;;12.90;99.90;;;;;;5013849;28;20223;-61
2022/05/30 09:54:54;;;;;;;9.33;6.50;;;13.00;99.90;;;;;;5015692;28;20206;-74
2022/05/30 09:57:41;;;;;;;8.27;5.93;;;13.00;99.90;;;;;;5012904;28;20216;-82
2022/05/30 10:00:30;;;;;;;7.50;6.43;;;13.00;99.90;;;;;;5004114;28;20200;-86
2022/05/30 10:03:25;;;;;;;8.17;6.00;;;13.10;99.90;;;;;;5020335;28;20278;-81
2022/05/30 10:06:20;;;;;;;7.33;6.47;;;13.20;99.90;;;;;;4993232;28;20227;-65
2022/05/30 10:08:48;;;;;;;6.57;5.83;;;13.20;99.90;;;;;;5012254;28;20196;-63
2022/05/30 10:11:35;;;;;;;9.13;6.00;;;13.30;99.90;;;;;;5010557;28;20215;-66
2022/05/30 10:14:27;;;;;;;6.80;5.00;;;13.50;99.90;;;;;;5004690;28;20656;-65
2022/05/30 10:17:11;;;;;;;5.87;4.90;;;13.60;99.90;;;;;;5013493;28;20658;-66
2022/05/30 10:19:41;;;;;;;7.43;5.23;;;13.60;99.90;;;;;;5012683;28;20633;-62
2022/05/30 10:28:22;;;;;;;3.87;3.33;;;13.80;99.90;;;;;;5026175;28;20648;-69
2022/05/30 10:31:23;;;;;;;4.40;4.00;;;13.90;99.90;;;;;;5012232;28;20291;-63
2022/05/30 10:34:16;;;;;;;5.67;4.30;;;13.80;99.90;;;;;;4999452;28;20239;-70
2022/05/30 10:37:07;;;;;;;4.67;4.00;;;13.80;99.90;;;;;;4990303;28;20203;-64
2022/05/30 10:39:37;;;;;;;4.40;3.53;;;13.90;99.90;;;;;;5010703;28;20292;-61
2022/05/30 10:42:08;;;;;;;4.00;3.60;;;13.90;99.90;;;;;;5015082;28;20291;-61
2022/05/30 10:44:41;;;;;;;2.47;2.27;;;14.10;99.90;;;;;;4999040;28;20223;-59
2022/05/30 10:47:18;;;;;;;2.80;2.50;;;14.10;99.90;;;;;;5013673;28;20196;-61
2022/05/30 10:49:55;;;;;;;2.83;2.60;;;14.30;99.90;;;;;;5014830;28;20238;-63
2022/05/30 10:52:35;;;;;;;4.23;2.60;;;14.60;99.90;;;;;;5012773;28;20238;-60
2022/05/30 10:55:10;;;;;;;3.50;2.70;;;14.80;99.90;;;;;;5020714;28;20195;-74
2022/05/30 10:57:45;;;;;;;3.57;3.00;;;14.70;99.90;;;;;;5032763;28;20270;-77
2022/05/30 11:00:21;;;;;;;3.40;3.00;;;14.80;99.90;;;;;;5031313;28;20199;-68
2022/05/30 11:03:03;;;;;;;5.10;3.20;;;14.80;99.90;;;;;;5031604;28;20262;-62
2022/05/30 11:05:52;;;;;;;5.00;3.30;;;14.40;99.90;;;;;;5031137;28;20310;-60
2022/05/30 11:08:38;;;;;;;4.27;3.30;;;14.40;99.90;;;;;;5031502;28;20204;-81
2022/05/30 11:11:28;;;;;;;4.10;3.20;;;14.60;99.90;;;;;;5021818;28;20192;-71
2022/05/30 11:14:03;;;;;;;4.43;3.50;;;14.60;99.90;;;;;;5014689;28;20299;-62
2022/05/30 11:16:32;;;;;;;4.30;3.43;;;14.60;99.90;;;;;;5015101;28;20208;-61
2022/05/30 11:19:42;;;;;;;4.57;3.37;;;14.90;99.90;;;;;;5015334;28;20196;-61
2022/05/30 11:22:31;;;;;;;4.83;3.60;;;15.20;99.90;;;;;;5012794;28;20289;-60
2022/05/30 11:25:02;;;;;;;4.30;2.90;;;15.40;99.90;;;;;;5023732;28;20216;-62
2022/05/30 11:27:37;;;;;;;2.60;2.40;;;15.40;99.90;;;;;;5026933;28;20196;-68
2022/05/30 11:30:33;;;;;;;3.27;2.50;;;15.30;99.90;;;;;;5016521;28;20290;-68
2022/05/30 11:33:25;;;;;;;6.43;3.00;;;15.20;99.90;;;;;;5020218;28;20235;-70
2022/05/30 11:36:34;;;;;;;4.87;3.00;;;15.40;99.90;;;;;;5021607;28;20596;-65
2022/05/30 11:39:24;;;;;;;7.17;3.17;;;15.70;99.90;;;;;;5021060;28;20212;-66
2022/05/30 11:42:24;;;;;;;3.10;2.77;;;15.60;99.90;;;;;;5038377;28;20282;-75
2022/05/30 11:44:56;;;;;;;8.87;2.87;;;15.60;99.90;;;;;;5022111;28;20327;-68
2022/05/30 11:47:28;;;;;;;3.27;2.97;;;15.00;99.90;;;;;;5014900;28;20246;-72
2022/05/30 11:50:32;;;;;;;3.83;3.10;;;15.00;99.90;;;;;;5015682;28;20211;-61
2022/05/30 11:53:18;;;;;;;5.20;3.10;;;14.80;99.90;;;;;;5018083;28;20253;-62
2022/05/30 11:56:17;;;;;;;3.93;2.57;;;14.90;99.90;;;;;;5028915;28;20223;-70
2022/05/30 11:58:54;;;;;;;4.63;2.80;;;14.90;99.90;;;;;;5017747;28;20287;-65
2022/05/30 12:01:25;;;;;;;7.07;2.80;;;14.80;99.90;;;;;;5029640;28;20234;-61
2022/05/30 12:04:01;;;;;;;6.20;2.97;;;14.80;99.90;;;;;;4998608;28;20219;-64
2022/05/30 12:07:01;;;;;;;4.10;2.47;;;14.80;99.90;;;;;;5015457;28;20327;-60
2022/05/30 12:10:09;;;;;;;2.60;2.30;;;14.80;99.90;;;;;;5016506;28;20292;-60
2022/05/30 12:12:42;;;;;;;3.57;1.90;;;15.10;99.90;;;;;;5009816;28;20615;-60
2022/05/30 12:15:29;;;;;;;2.67;1.93;;;15.10;99.90;;;;;;5014111;28;20192;-61
2022/05/30 12:24:18;;;;;;;4.03;2.20;;;14.50;99.90;;;;;;5012697;28;20270;-59
2022/05/30 12:26:55;;;;;;;2.30;2.10;;;14.50;99.90;;;;;;5013764;28;20314;-59
2022/05/30 12:29:37;;;;;;;2.97;2.17;;;14.40;99.90;;;;;;5016046;28;20613;-73
2022/05/30 12:32:16;;;;;;;3.80;2.43;;;14.40;99.90;;;;;;5013391;28;20234;-76
2022/05/30 12:35:10;;;;;;;2.73;2.50;;;14.40;99.90;;;;;;5016927;28;20620;-61
2022/05/30 12:37:44;;;;;;;3.23;2.77;;;14.30;99.90;;;;;;5033573;28;20193;-61
2022/05/30 12:40:26;;;;;;;3.07;2.80;;;14.50;99.90;;;;;;5020231;28;20211;-61
2022/05/30 12:43:08;;;;;;;3.70;2.93;;;14.60;99.90;;;;;;5013619;28;20235;-64
2022/05/30 12:45:44;;;;;;;3.73;3.33;;;14.70;99.90;;;;;;5015431;28;20673;-65
2022/05/30 12:48:14;;;;;;;4.73;3.20;;;14.80;99.90;;;;;;5014758;28;20362;-63
2022/05/30 12:50:44;;;;;;;4.33;3.03;;;15.10;99.90;;;;;;5013901;28;20684;-67
2022/05/30 12:53:12;;;;;;;5.10;3.67;;;14.90;99.90;;;;;;5013291;28;20196;-71
2022/05/30 12:55:54;;;;;;;5.87;3.97;;;15.00;99.90;;;;;;5013772;28;20208;-63
2022/05/30 12:58:31;;;;;;;4.60;3.77;;;14.80;99.90;;;;;;5013342;28;20196;-63
2022/05/30 13:01:31;;;;;;;3.70;3.40;;;14.60;99.90;;;;;;5014038;28;20291;-61
2022/05/30 13:04:23;;;;;;;4.10;3.70;;;14.40;99.90;;;;;;4957344;28;20201;-61
2022/05/30 13:06:56;;;;;;;4.73;4.23;;;14.20;99.90;;;;;;4917825;29;20271;-67
2022/05/30 13:09:46;;;;;;;7.00;3.97;;;14.10;99.90;;;;;;4915791;29;20285;-61
2022/05/30 13:12:20;;;;;;;5.50;3.80;;;14.10;99.90;;;;;;4916789;29;20214;-61
2022/05/30 13:14:59;;;;;;;4.77;3.60;;;14.20;99.90;;;;;;4918880;29;20203;-64
2022/05/30 13:17:51;;;;;;;3.60;3.13;;;14.10;99.90;;;;;;4926813;29;20201;-60
2022/05/30 13:20:32;;;;;;;4.00;3.30;;;13.80;99.90;;;;;;4911170;29;20229;-61
2022/05/30 13:23:01;;;;;;;5.33;4.10;;;13.20;99.90;;;;;;4921092;29;20219;-59
2022/05/30 13:25:34;;;;;;;7.00;4.70;;;12.80;99.90;;;;;;4895555;29;20272;-65
2022/05/30 13:28:08;;;;;;;8.00;5.50;;;12.50;99.90;;;;;;4882723;29;20300;-62
2022/05/30 13:30:36;;;;;;;8.27;5.93;;;12.30;99.90;;;;;;4914423;29;20207;-62
2022/05/30 13:33:12;;;;;;;8.27;6.17;;;12.00;99.90;;;;;;4915461;29;20207;-77